Time;durP1;ratioP1;P1;durP2;ratioP2;P2;SDS_P1;SDS_P2;PMS_P1;PMS_P2;Temp;Humidity;BMP_temperature;BMP_pressure;BME280_temperature;BME280_humidity;BME280_pressure;Samples;Min_cycle;Max_cycle;Signal;HPM_P1;HPM_P2
2023/03/12 00:00:47;;;;;;;6.67;2.10;;;;;;;-143.84;50.40;45167.13;5088805;28;20501;-75
2023/03/12 00:03:15;;;;;;;14.70;2.13;;;;;;;-143.84;51.27;45172.84;5088534;28;20447;-76
2023/03/12 00:05:43;;;;;;;20.63;2.17;;;;;;;-143.84;51.01;45207.13;5089166;28;20440;-75
2023/03/12 00:08:11;;;;;;;3.50;1.77;;;;;;;-143.84;51.02;45184.25;5089660;28;20479;-75
2023/03/12 00:10:40;;;;;;;13.73;2.60;;;;;;;-143.84;50.11;45170.94;5089353;28;20493;-75
2023/03/12 00:13:13;;;;;;;6.60;2.30;;;;;;;-143.84;50.49;45188.06;5089168;28;20471;-75
2023/03/12 00:15:40;;;;;;;6.60;1.77;;;;;;;-143.84;50.38;45176.66;5087526;28;20428;-75
2023/03/12 00:18:07;;;;;;;5.60;2.00;;;;;;;-143.84;50.18;45172.84;5089191;28;20869;-75
2023/03/12 00:20:34;;;;;;;5.40;1.60;;;;;;;-143.84;50.03;45155.69;5089397;28;20436;-75
2023/03/12 00:23:02;;;;;;;2.47;1.70;;;;;;;-143.84;49.82;45201.41;5089080;28;20432;-75
2023/03/12 00:25:29;;;;;;;8.40;1.83;;;;;;;-143.84;50.33;45186.16;5088209;28;20448;-75
2023/03/12 00:27:57;;;;;;;5.67;1.53;;;;;;;-143.84;49.94;45148.09;5088694;28;20475;-75
2023/03/12 00:30:27;;;;;;;9.50;1.63;;;;;;;-143.84;50.94;45159.50;5089648;28;20848;-75
2023/03/12 00:32:54;;;;;;;8.53;1.93;;;;;;;-143.84;50.37;45197.59;5089278;28;20452;-75
2023/03/12 00:35:21;;;;;;;9.40;2.77;;;;;;;-143.84;50.87;45182.38;5089256;28;20949;-75
2023/03/12 00:37:48;;;;;;;2.20;1.50;;;;;;;-143.84;50.55;45189.97;5091679;28;20488;-75
2023/03/12 00:40:15;;;;;;;8.83;1.50;;;;;;;-143.84;51.32;45161.41;5093017;28;20440;-75
2023/03/12 00:42:42;;;;;;;9.23;1.90;;;;;;;-143.84;51.51;45188.06;5092311;28;20444;-75
2023/03/12 00:45:11;;;;;;;6.70;2.10;;;;;;;-143.84;51.44;45167.13;5093135;28;20439;-75
2023/03/12 00:47:39;;;;;;;12.93;1.80;;;;;;;-143.84;51.61;45193.78;5091889;28;20937;-76
2023/03/12 00:50:06;;;;;;;9.23;2.20;;;;;;;-143.84;51.51;45186.16;5092371;28;20495;-76
2023/03/12 00:52:33;;;;;;;5.40;2.27;;;;;;;-143.84;51.42;45189.97;5093127;28;20428;-75
2023/03/12 00:55:01;;;;;;;4.23;1.70;;;;;;;-143.84;51.57;45170.94;5092567;28;20440;-75
2023/03/12 00:57:28;;;;;;;4.73;2.00;;;;;;;-143.84;51.58;45203.31;5092775;28;20443;-75
2023/03/12 00:59:55;;;;;;;11.30;1.77;;;;;;;-143.84;51.56;45178.56;5092284;28;21006;-76
2023/03/12 01:02:24;;;;;;;19.27;3.00;;;;;;;-143.84;52.24;45176.66;5093129;28;20436;-76
2023/03/12 01:04:51;;;;;;;15.23;1.90;;;;;;;-143.84;51.77;45159.50;5092949;28;20439;-76
2023/03/12 01:07:18;;;;;;;7.20;2.53;;;;;;;-143.84;52.07;45178.56;5093038;28;20447;-76
2023/03/12 01:09:45;;;;;;;3.13;2.27;;;;;;;-143.84;52.74;45163.31;5092461;28;20895;-76
2023/03/12 01:12:13;;;;;;;8.70;2.00;;;;;;;-143.84;52.58;45174.75;5091563;28;20440;-76
2023/03/12 01:14:40;;;;;;;3.27;1.93;;;;;;;-143.84;52.25;45155.69;5092805;28;20513;-76
2023/03/12 01:17:07;;;;;;;9.03;2.10;;;;;;;-143.84;52.24;45184.25;5092492;28;20444;-76
2023/03/12 01:19:35;;;;;;;3.87;2.73;;;;;;;-143.84;52.64;45169.03;5092345;28;20436;-76
2023/03/12 01:22:03;;;;;;;8.43;2.20;;;;;;;-143.84;52.43;45188.06;5092444;28;20820;-76
2023/03/12 01:24:30;;;;;;;3.43;2.13;;;;;;;-143.84;51.82;45174.75;5092324;28;20443;-76
2023/03/12 01:26:57;;;;;;;2.60;2.37;;;;;;;-143.84;51.57;45174.75;5092043;28;20440;-76
2023/03/12 01:29:25;;;;;;;5.80;1.97;;;;;;;-143.84;51.39;45205.22;5091711;28;20468;-76
2023/03/12 01:31:52;;;;;;;4.27;2.30;;;;;;;-143.84;51.48;45193.78;5091910;28;20448;-76
2023/03/12 01:34:19;;;;;;;5.10;2.60;;;;;;;-143.84;51.71;45178.56;5091378;28;20440;-76
2023/03/12 01:36:48;;;;;;;8.83;2.37;;;;;;;-143.84;51.93;45157.59;5091362;28;20981;-76
2023/03/12 01:39:15;;;;;;;7.60;2.20;;;;;;;-143.84;51.84;45184.25;5091986;28;20444;-77
2023/03/12 01:41:42;;;;;;;2.70;2.00;;;;;;;-143.84;51.69;45180.47;5092250;28;20508;-76
2023/03/12 01:44:13;;;;;;;7.70;2.53;;;;;;;-143.84;51.75;45174.75;5092618;28;20436;-76
2023/03/12 01:46:42;;;;;;;5.33;2.30;;;;;;;-143.84;51.87;45167.13;5092782;28;20448;-76
2023/03/12 01:49:12;;;;;;;2.17;1.97;;;;;;;-143.84;51.84;45163.31;5092172;28;20578;-76
2023/03/12 01:51:43;;;;;;;2.30;2.07;;;;;;;-143.84;52.17;45180.47;5092778;28;20420;-76
2023/03/12 01:54:15;;;;;;;9.80;2.60;;;;;;;-143.84;53.00;45167.13;5092925;28;20437;-77
2023/03/12 01:56:43;;;;;;;10.80;2.90;;;;;;;-143.84;52.91;45180.47;5091546;28;20448;-76
2023/03/12 01:59:15;;;;;;;2.73;2.03;;;;;;;-143.84;52.75;45170.94;5091682;28;20432;-76
2023/03/12 02:01:43;;;;;;;6.13;2.30;;;;;;;-143.84;53.06;45155.69;5092516;28;20513;-76
2023/03/12 02:04:12;;;;;;;8.23;3.80;;;;;;;-143.84;53.44;45176.66;5092118;28;20444;-76
2023/03/12 02:06:45;;;;;;;4.33;3.10;;;;;;;-143.84;53.52;45207.13;5092494;28;20431;-76
2023/03/12 02:09:15;;;;;;;7.43;3.30;;;;;;;-143.84;54.10;45186.16;5092365;28;20495;-76
2023/03/12 02:11:42;;;;;;;5.07;2.53;;;;;;;-143.84;54.41;45180.47;5091949;28;20455;-76
2023/03/12 02:14:09;;;;;;;3.87;2.40;;;;;;;-143.84;54.06;45189.97;5092225;28;20485;-76
2023/03/12 02:16:36;;;;;;;10.23;2.90;;;;;;;-143.84;54.80;45174.75;5091668;28;21066;-76
2023/03/12 02:19:13;;;;;;;3.00;2.37;;;;;;;-143.84;54.92;45193.78;5091435;28;20452;-76
2023/03/12 02:21:40;;;;;;;5.07;3.33;;;;;;;-143.84;54.76;45178.56;5090446;28;20451;-76
2023/03/12 02:24:21;;;;;;;4.40;2.80;;;;;;;-143.84;54.94;45174.75;5091130;28;20448;-76
2023/03/12 02:26:50;;;;;;;10.63;3.10;;;;;;;-143.84;55.58;45167.13;5091809;28;20439;-76
2023/03/12 02:29:18;;;;;;;7.13;3.33;;;;;;;-143.84;55.64;45195.69;5091360;28;20476;-76
2023/03/12 02:31:52;;;;;;;5.23;2.87;;;;;;;-143.84;55.58;45210.94;5091403;28;20471;-76
2023/03/12 02:34:19;;;;;;;7.03;3.63;;;;;;;-143.84;55.81;45188.06;5091747;28;20440;-76
2023/03/12 02:36:46;;;;;;;6.30;3.53;;;;;;;-143.84;56.24;45207.13;5090795;28;20483;-76
2023/03/12 02:39:13;;;;;;;5.10;2.70;;;;;;;-143.84;56.71;45209.03;5091016;28;20463;-76
2023/03/12 02:41:44;;;;;;;7.20;3.57;;;;;;;-143.84;56.52;45174.75;5090962;28;20493;-77
2023/03/12 02:44:17;;;;;;;5.30;3.73;;;;;;;-143.84;56.70;45199.50;5089999;28;20452;-77
2023/03/12 02:46:47;;;;;;;5.23;3.80;;;;;;;-143.84;57.17;45174.75;5091276;28;20462;-77
2023/03/12 02:49:14;;;;;;;7.17;2.63;;;;;;;-143.84;57.01;45193.78;5091000;28;20476;-76
2023/03/12 02:51:43;;;;;;;11.80;3.30;;;;;;;-143.84;57.31;45167.13;5091158;28;20447;-77
2023/03/12 02:54:11;;;;;;;17.53;3.77;;;;;;;-143.84;57.69;45188.06;5091118;28;20439;-77
2023/03/12 02:56:40;;;;;;;6.00;4.40;;;;;;;-143.84;57.80;45184.25;5091286;28;20860;-76
2023/03/12 02:59:09;;;;;;;8.57;3.53;;;;;;;-143.84;58.19;45180.47;5090319;28;20833;-76
2023/03/12 03:01:37;;;;;;;6.20;3.63;;;;;;;-143.84;58.02;45191.88;5090868;28;20505;-76
2023/03/12 03:04:06;;;;;;;5.33;4.40;;;;;;;-143.84;58.35;45170.94;5090917;28;20450;-76
2023/03/12 03:06:34;;;;;;;4.93;4.20;;;;;;;-143.84;58.39;45178.56;5089420;28;20452;-76
2023/03/12 03:09:02;;;;;;;5.50;3.63;;;;;;;-143.84;58.75;45205.22;5089392;28;20488;-76
2023/03/12 03:11:29;;;;;;;8.80;4.10;;;;;;;-143.84;58.78;45169.03;5090068;28;20513;-76
2023/03/12 03:13:56;;;;;;;8.60;4.10;;;;;;;-143.84;58.67;45189.97;5089830;28;20444;-76
2023/03/12 03:16:24;;;;;;;9.33;4.70;;;;;;;-143.84;59.06;45197.59;5089510;28;20494;-76
2023/03/12 03:18:53;;;;;;;15.33;4.90;;;;;;;-143.84;58.89;45169.03;5088826;28;20489;-76
2023/03/12 03:21:21;;;;;;;7.03;3.40;;;;;;;-143.84;58.79;45210.94;5088997;28;20498;-76
2023/03/12 03:23:49;;;;;;;6.03;5.40;;;;;;;-143.84;58.62;45199.50;5089574;28;20534;-76
2023/03/12 03:26:19;;;;;;;7.03;3.90;;;;;;;-143.84;58.92;45189.97;5089446;28;21302;-76
2023/03/12 03:28:47;;;;;;;9.90;3.93;;;;;;;-143.84;59.35;45207.13;5088676;28;20501;-76
2023/03/12 03:31:14;;;;;;;12.20;4.80;;;;;;;-143.84;59.36;45205.22;5089036;28;20451;-76
2023/03/12 03:33:41;;;;;;;8.13;4.43;;;;;;;-143.84;59.47;45189.97;5089830;28;20995;-76
2023/03/12 03:36:13;;;;;;;4.20;3.90;;;;;;;-143.84;59.25;45176.66;5089712;28;20489;-76
2023/03/12 03:38:41;;;;;;;4.23;3.83;;;;;;;-143.84;59.36;45189.97;5089674;28;21033;-76
2023/03/12 03:41:08;;;;;;;5.93;4.40;;;;;;;-143.84;59.33;45186.16;5089720;28;20439;-75
2023/03/12 03:43:36;;;;;;;9.10;4.57;;;;;;;-143.84;60.01;45193.78;5089430;28;20447;-75
2023/03/12 03:46:04;;;;;;;6.30;3.70;;;;;;;-143.84;59.68;45189.97;5089536;28;20444;-75
2023/03/12 03:48:32;;;;;;;18.87;4.60;;;;;;;-143.84;59.63;45191.88;5089697;28;20443;-76
2023/03/12 03:51:00;;;;;;;6.70;3.83;;;;;;;-143.84;59.92;45188.06;5089470;28;20490;-76
2023/03/12 03:53:29;;;;;;;12.10;3.90;;;;;;;-143.84;59.65;45191.88;5088768;28;20961;-75
2023/03/12 03:55:56;;;;;;;10.47;4.33;;;;;;;-143.84;59.62;45170.94;5089374;28;20455;-76
2023/03/12 03:58:24;;;;;;;6.30;4.03;;;;;;;-143.84;59.40;45214.72;5089558;28;20875;-76
2023/03/12 04:00:51;;;;;;;11.20;4.50;;;;;;;-143.84;59.64;45186.16;5089499;28;20518;-76
2023/03/12 04:03:18;;;;;;;5.30;4.10;;;;;;;-143.84;59.44;45193.78;5089759;28;20489;-76
2023/03/12 04:05:46;;;;;;;11.97;3.63;;;;;;;-143.84;59.64;45210.94;5089317;28;20447;-75
2023/03/12 04:08:13;;;;;;;9.50;4.37;;;;;;;-143.84;59.75;45193.78;5089504;28;20493;-76
2023/03/12 04:10:42;;;;;;;6.40;4.50;;;;;;;-143.84;60.21;45216.63;5090435;28;20479;-76
2023/03/12 04:13:09;;;;;;;8.13;4.40;;;;;;;-143.84;60.36;45165.22;5093557;28;20451;-76
2023/03/12 04:15:36;;;;;;;6.20;4.17;;;;;;;-143.84;61.14;45178.56;5092534;28;20439;-76
2023/03/12 04:18:03;;;;;;;4.87;4.50;;;;;;;-143.84;61.17;45197.59;5093398;28;20496;-76
2023/03/12 04:20:33;;;;;;;4.23;3.50;;;;;;;-143.84;61.06;45180.47;5093348;28;20446;-76
2023/03/12 04:23:00;;;;;;;6.03;4.20;;;;;;;-143.84;61.49;45189.97;5093465;28;20828;-76
2023/03/12 04:25:27;;;;;;;7.03;3.97;;;;;;;-143.84;61.65;45191.88;5093280;28;20435;-76
2023/03/12 04:27:56;;;;;;;11.80;5.60;;;;;;;-143.84;61.52;45195.69;5093318;28;20864;-76
2023/03/12 04:30:23;;;;;;;16.07;4.30;;;;;;;-143.84;61.60;45210.94;5093527;28;20479;-76
2023/03/12 04:32:50;;;;;;;18.57;4.70;;;;;;;-143.84;61.50;45172.84;5093141;28;20484;-76
2023/03/12 04:35:17;;;;;;;8.30;5.17;;;;;;;-143.84;62.02;45186.16;5093061;28;20447;-76
2023/03/12 04:37:44;;;;;;;12.83;4.30;;;;;;;-143.84;62.17;45231.88;5091824;28;20548;-76
2023/03/12 04:40:14;;;;;;;11.53;4.40;;;;;;;-143.84;61.55;45205.22;5092537;28;20456;-76
2023/03/12 04:42:41;;;;;;;7.50;3.90;;;;;;;-143.84;61.53;45212.84;5092850;28;20451;-76
2023/03/12 04:45:11;;;;;;;8.57;4.43;;;;;;;-143.84;61.45;45169.03;5093088;28;20447;-76
2023/03/12 04:47:38;;;;;;;4.97;4.57;;;;;;;-143.84;61.70;45203.31;5093068;28;20859;-76
2023/03/12 04:50:07;;;;;;;18.67;3.87;;;;;;;-143.84;61.50;45188.06;5093370;28;20521;-76
2023/03/12 04:52:34;;;;;;;5.60;4.03;;;;;;;-143.84;61.60;45176.66;5092974;28;20504;-76
2023/03/12 04:55:01;;;;;;;5.00;3.80;;;;;;;-143.84;61.52;45203.31;5092769;28;20489;-76
2023/03/12 04:57:28;;;;;;;7.00;3.83;;;;;;;-143.84;61.76;45205.22;5093271;28;20439;-76
2023/03/12 04:59:55;;;;;;;8.40;4.10;;;;;;;-143.84;61.66;45189.97;5092210;28;20458;-76
2023/03/12 05:02:24;;;;;;;5.67;3.80;;;;;;;-143.84;61.62;45201.41;5092580;28;20455;-76
2023/03/12 05:04:51;;;;;;;12.77;4.13;;;;;;;-143.84;61.81;45199.50;5092752;28;20448;-76
2023/03/12 05:07:18;;;;;;;8.47;4.00;;;;;;;-143.84;61.93;45188.06;5092372;28;20458;-76
2023/03/12 05:09:46;;;;;;;6.90;4.30;;;;;;;-143.84;61.89;45167.13;5092724;28;20481;-77
2023/03/12 05:12:13;;;;;;;13.80;4.00;;;;;;;-143.84;61.93;45216.63;5093124;28;20428;-77
2023/03/12 05:14:40;;;;;;;7.97;4.07;;;;;;;-143.84;61.84;45197.59;5092082;28;20505;-72
2023/03/12 05:17:07;;;;;;;9.30;5.00;;;;;;;-143.84;62.08;45209.03;5091960;28;21009;-73
2023/03/12 05:19:36;;;;;;;18.13;4.23;;;;;;;-143.84;61.78;45209.03;5091896;28;20448;-72
2023/03/12 05:22:03;;;;;;;9.80;4.10;;;;;;;-143.84;61.97;45210.94;5090523;28;20447;-72
2023/03/12 05:24:30;;;;;;;6.70;4.00;;;;;;;-143.84;61.94;45184.25;5091052;28;20440;-72
2023/03/12 05:26:57;;;;;;;8.10;4.03;;;;;;;-143.84;62.16;45199.50;5091712;28;20440;-72
2023/03/12 05:29:24;;;;;;;6.23;4.37;;;;;;;-143.84;62.40;45205.22;5091892;28;20439;-72
2023/03/12 05:31:52;;;;;;;8.30;3.80;;;;;;;-143.84;62.43;45197.59;5091805;28;20529;-72
2023/03/12 05:34:19;;;;;;;7.60;3.77;;;;;;;-143.84;62.50;45189.97;5091652;28;20452;-72
2023/03/12 05:36:47;;;;;;;15.53;4.30;;;;;;;-143.84;62.53;45224.25;5091447;28;20544;-72
2023/03/12 05:39:14;;;;;;;4.93;4.50;;;;;;;-143.84;62.78;45174.75;5091768;28;20432;-72
2023/03/12 05:41:42;;;;;;;6.00;3.30;;;;;;;-143.84;62.09;45216.63;5091318;28;20428;-72
2023/03/12 05:44:12;;;;;;;14.47;4.13;;;;;;;-143.84;61.78;45197.59;5091211;28;20448;-72
2023/03/12 05:46:39;;;;;;;6.03;4.37;;;;;;;-143.84;61.92;45174.75;5090598;28;20441;-73
2023/03/12 05:49:06;;;;;;;13.13;4.37;;;;;;;-143.84;61.57;45176.66;5091234;28;21000;-73
2023/03/12 05:51:33;;;;;;;21.53;4.70;;;;;;;-143.84;61.36;45186.16;5091334;28;20912;-73
2023/03/12 05:54:02;;;;;;;5.80;4.87;;;;;;;-143.84;61.48;45228.06;5091754;28;20439;-73
2023/03/12 05:56:30;;;;;;;5.47;4.07;;;;;;;-143.84;60.72;45218.53;5091299;28;20930;-73
2023/03/12 05:58:57;;;;;;;10.40;4.40;;;;;;;-143.84;60.04;45189.97;5091081;28;20448;-73
2023/03/12 06:01:26;;;;;;;23.27;5.33;;;;;;;-143.84;60.32;45224.25;5091161;28;20856;-73
2023/03/12 06:03:53;;;;;;;6.67;3.70;;;;;;;-143.84;59.95;45191.88;5091095;28;20447;-72
2023/03/12 06:06:20;;;;;;;10.43;5.00;;;;;;;-143.84;59.74;45191.88;5091113;28;20444;-73
2023/03/12 06:08:47;;;;;;;5.30;4.37;;;;;;;-143.84;59.77;45195.69;5090206;28;20451;-73
2023/03/12 06:11:16;;;;;;;13.60;4.83;;;;;;;-143.84;59.19;45203.31;5090601;28;21005;-73
2023/03/12 06:13:44;;;;;;;3.83;3.53;;;;;;;-143.84;59.14;45180.47;5091031;28;20527;-72
2023/03/12 06:16:15;;;;;;;5.40;4.40;;;;;;;-143.84;58.30;45178.56;5090746;28;20435;-72
2023/03/12 06:18:42;;;;;;;9.57;4.10;;;;;;;-143.84;58.77;45170.94;5090754;28;20440;-72
2023/03/12 06:21:11;;;;;;;12.47;4.37;;;;;;;-143.84;58.61;45197.59;5091206;28;20447;-72
2023/03/12 06:23:38;;;;;;;4.53;4.10;;;;;;;-143.84;59.11;45186.16;5090843;28;21246;-73
2023/03/12 06:26:06;;;;;;;7.00;4.07;;;;;;;-143.84;58.36;45205.22;5090622;28;20500;-72
2023/03/12 06:28:35;;;;;;;6.87;3.60;;;;;;;-143.84;57.28;45186.16;5091055;28;20436;-72
2023/03/12 06:31:02;;;;;;;23.00;4.20;;;;;;;-143.84;56.77;45167.13;5089611;28;20891;-73
2023/03/12 06:33:30;;;;;;;10.17;3.60;;;;;;;-143.84;57.18;45189.97;5090085;28;20448;-70
2023/03/12 06:35:59;;;;;;;7.83;4.10;;;;;;;-143.84;56.79;45157.59;5090121;28;20477;-71
2023/03/12 06:38:27;;;;;;;5.00;3.20;;;;;;;-143.84;55.75;45178.56;5090146;28;20476;-73
2023/03/12 06:40:56;;;;;;;3.70;3.40;;;;;;;-143.84;55.77;45170.94;5090384;28;20452;-74
2023/03/12 06:43:24;;;;;;;15.87;3.20;;;;;;;-143.84;54.72;45159.50;5090086;28;20509;-73
2023/03/12 06:45:54;;;;;;;10.27;3.70;;;;;;;-143.84;53.58;45180.47;5090263;28;20444;-73
2023/03/12 06:48:21;;;;;;;9.27;3.63;;;;;;;-143.84;52.63;45178.56;5090161;28;20497;-73
2023/03/12 06:50:49;;;;;;;17.13;3.33;;;;;;;-143.84;52.57;45191.88;5090214;28;20480;-73
2023/03/12 06:53:16;;;;;;;6.77;3.67;;;;;;;-143.84;51.88;45159.50;5090321;28;20785;-73
2023/03/12 06:55:44;;;;;;;10.63;3.43;;;;;;;-143.84;52.27;45146.19;5087359;28;20453;-74
2023/03/12 06:58:11;;;;;;;9.00;3.47;;;;;;;-143.84;51.90;45176.66;5085975;28;20440;-75
2023/03/12 07:00:39;;;;;;;7.27;3.30;;;;;;;-143.84;51.01;45174.75;5089866;28;20512;-72
2023/03/12 07:03:08;;;;;;;3.87;3.37;;;;;;;-143.84;50.50;45165.22;5089015;28;20436;-74
2023/03/12 07:05:35;;;;;;;4.93;3.27;;;;;;;-143.84;49.77;45188.06;5088489;28;20443;-73
2023/03/12 07:08:02;;;;;;;6.97;3.67;;;;;;;-143.84;50.14;45136.66;5089274;28;20448;-71
2023/03/12 07:10:30;;;;;;;5.17;3.67;;;;;;;-143.84;50.31;45165.22;5089078;28;20515;-72
2023/03/12 07:12:57;;;;;;;6.90;3.63;;;;;;;-143.84;50.15;45172.84;5088631;28;20513;-72
2023/03/12 07:15:24;;;;;;;3.77;3.30;;;;;;;-143.84;50.73;45193.78;5088790;28;20455;-72
2023/03/12 07:17:51;;;;;;;5.23;3.00;;;;;;;-143.84;50.55;45170.94;5088774;28;20509;-72
2023/03/12 07:20:20;;;;;;;3.27;2.93;;;;;;;-143.84;49.76;45174.75;5088503;28;20485;-72
2023/03/12 07:22:48;;;;;;;5.03;3.60;;;;;;;-143.84;50.43;45144.28;5088585;28;20448;-72
2023/03/12 07:25:15;;;;;;;3.60;3.30;;;;;;;-143.84;50.28;45169.03;5088717;28;20440;-72
2023/03/12 07:27:42;;;;;;;3.73;3.43;;;;;;;-143.84;50.50;45170.94;5088989;28;20456;-72
2023/03/12 07:30:11;;;;;;;14.27;4.13;;;;;;;-143.84;50.09;45167.13;5089111;28;20483;-73
2023/03/12 07:32:38;;;;;;;3.97;3.60;;;;;;;-143.84;49.93;45151.91;5086870;28;20443;-73
2023/03/12 07:35:06;;;;;;;3.80;2.83;;;;;;;-143.84;49.68;45165.22;5088924;28;20452;-73
2023/03/12 07:37:34;;;;;;;8.47;3.00;;;;;;;-143.84;50.23;45176.66;5085366;28;20476;-73
2023/03/12 07:40:04;;;;;;;9.80;3.67;;;;;;;-143.84;49.41;45184.25;5087396;28;20482;-74
2023/03/12 07:42:31;;;;;;;15.47;4.10;;;;;;;-143.84;49.17;45189.97;5087602;28;20523;-74
2023/03/12 07:44:58;;;;;;;15.77;3.50;;;;;;;-143.84;49.08;45144.28;5087571;28;20497;-74
2023/03/12 07:47:25;;;;;;;8.00;3.40;;;;;;;-143.84;49.59;45184.25;5088170;28;20455;-74
2023/03/12 07:49:53;;;;;;;3.10;2.80;;;;;;;-143.84;49.86;45169.03;5088023;28;20468;-74
2023/03/12 07:52:20;;;;;;;3.80;3.20;;;;;;;-143.84;49.69;45165.22;5088295;28;20898;-73
2023/03/12 07:54:51;;;;;;;6.80;4.07;;;;;;;-143.84;49.45;45153.81;5087844;28;20547;-74
2023/03/12 07:57:18;;;;;;;6.23;3.80;;;;;;;-143.84;49.22;45159.50;5087509;28;20459;-75
2023/03/12 07:59:46;;;;;;;4.87;4.10;;;;;;;-143.84;48.93;45148.09;5088011;28;20466;-72
2023/03/12 08:02:14;;;;;;;15.17;3.50;;;;;;;-143.84;48.85;45148.09;5087001;28;20447;-73
2023/03/12 08:04:41;;;;;;;4.20;2.90;;;;;;;-143.84;48.68;45159.50;5087176;28;20444;-71
2023/03/12 08:07:08;;;;;;;4.60;3.60;;;;;;;-143.84;48.56;45157.59;5088219;28;20450;-73
2023/03/12 08:09:37;;;;;;;4.27;3.77;;;;;;;-143.84;48.90;45163.31;5088432;28;20452;-73
2023/03/12 08:12:07;;;;;;;3.83;3.37;;;;;;;-143.84;48.72;45155.69;5088283;28;20824;-72
2023/03/12 08:14:35;;;;;;;4.50;3.17;;;;;;;-143.84;49.00;45165.22;5088129;28;20538;-73
2023/03/12 08:17:02;;;;;;;8.53;3.60;;;;;;;-143.84;49.47;45153.81;5088015;28;20437;-73
2023/03/12 08:19:29;;;;;;;13.43;4.10;;;;;;;-143.84;48.55;45170.94;5088281;28;20440;-72
2023/03/12 08:21:57;;;;;;;8.10;3.50;;;;;;;-143.84;47.71;45169.03;5088765;28;20466;-73
2023/03/12 08:24:25;;;;;;;4.67;3.20;;;;;;;-143.84;47.26;45142.38;5087288;28;20436;-73
2023/03/12 08:26:52;;;;;;;8.90;3.20;;;;;;;-143.84;47.00;45172.84;5086481;28;20946;-73
2023/03/12 08:29:21;;;;;;;4.03;3.57;;;;;;;-143.84;46.29;45165.22;5087363;28;20458;-73
2023/03/12 08:31:48;;;;;;;6.40;3.47;;;;;;;-143.84;46.86;45155.69;5087854;28;20538;-73
2023/03/12 08:34:15;;;;;;;15.20;3.80;;;;;;;-143.84;46.70;45165.22;5087834;28;20499;-73
2023/03/12 08:36:42;;;;;;;6.30;3.20;;;;;;;-143.84;47.12;45146.19;5088062;28;20938;-73
2023/03/12 08:39:09;;;;;;;3.33;2.87;;;;;;;-143.84;46.20;45144.28;5087498;28;20934;-73
2023/03/12 08:41:37;;;;;;;3.63;3.37;;;;;;;-143.84;46.58;45178.56;5087304;28;21326;-72
2023/03/12 08:44:04;;;;;;;11.73;5.30;;;;;;;-143.84;46.79;45155.69;5088240;28;20444;-71
2023/03/12 08:46:33;;;;;;;10.17;5.60;;;;;;;-143.84;46.78;45146.19;5085104;28;20452;-72
2023/03/12 08:49:00;;;;;;;6.87;3.83;;;;;;;-143.84;45.98;45159.50;5088055;28;20451;-72
2023/03/12 08:51:28;;;;;;;3.53;3.23;;;;;;;-143.84;45.03;45153.81;5087285;28;20472;-72
2023/03/12 08:53:55;;;;;;;6.80;3.30;;;;;;;-143.84;45.33;45153.81;5087735;28;20462;-72
2023/03/12 08:56:22;;;;;;;5.30;4.80;;;;;;;-143.84;45.13;45155.69;5086914;28;20982;-72
2023/03/12 08:58:49;;;;;;;6.50;4.07;;;;;;;-143.84;45.16;45148.09;5089990;28;20526;-72
2023/03/12 09:01:16;;;;;;;12.50;5.00;;;;;;;-143.84;45.06;45146.19;5091557;28;21134;-72
2023/03/12 09:03:46;;;;;;;25.93;9.60;;;;;;;-143.84;45.15;45106.19;5091345;28;20518;-72
2023/03/12 09:06:15;;;;;;;21.80;17.87;;;;;;;-143.84;45.10;45163.31;5091406;28;20831;-72
2023/03/12 09:08:43;;;;;;;29.93;21.93;;;;;;;-143.84;44.57;45159.50;5091324;28;20923;-72
2023/03/12 09:11:11;;;;;;;22.80;10.83;;;;;;;-143.84;45.30;45144.28;5091393;28;20497;-72
2023/03/12 09:13:38;;;;;;;12.87;7.63;;;;;;;-143.84;45.46;45140.47;5091662;28;20543;-72
2023/03/12 09:16:07;;;;;;;8.00;3.80;;;;;;;-143.84;46.03;45142.38;5091855;28;20447;-72
2023/03/12 09:18:35;;;;;;;4.73;4.33;;;;;;;-143.84;45.37;45119.53;5091578;28;20511;-71
2023/03/12 09:21:05;;;;;;;15.80;12.87;;;;;;;-143.84;43.25;45163.31;5091611;28;20467;-73
2023/03/12 09:23:32;;;;;;;9.33;4.60;;;;;;;-143.84;42.50;45108.09;5076689;28;20459;-72
2023/03/12 09:25:59;;;;;;;3.83;3.53;;;;;;;-143.84;40.95;45130.94;5091070;28;20441;-74
2023/03/12 09:28:27;;;;;;;5.87;4.90;;;;;;;-143.84;41.68;45136.66;5091247;28;20869;-73
2023/03/12 09:30:54;;;;;;;16.97;7.87;;;;;;;-143.84;40.88;45104.28;5091533;28;20957;-74
2023/03/12 09:33:21;;;;;;;5.10;4.70;;;;;;;-143.84;40.13;45127.13;5091542;28;20455;-74
2023/03/12 09:35:56;;;;;;;7.47;4.20;;;;;;;-143.84;40.39;45136.66;5091862;28;20442;-74
2023/03/12 09:38:25;;;;;;;6.90;5.10;;;;;;;-143.84;37.71;45106.19;5091463;28;20493;-75
2023/03/12 09:40:53;;;;;;;10.60;7.23;;;;;;;-143.84;38.48;45106.19;5091431;28;20465;-73
2023/03/12 09:43:29;;;;;;;9.80;4.07;;;;;;;-143.84;37.70;45111.91;5091100;28;20460;-72
2023/03/12 09:45:57;;;;;;;5.53;3.23;;;;;;;-143.84;36.75;45125.22;5091110;28;20458;-73
2023/03/12 09:48:32;;;;;;;5.78;5.13;;;;;;;-143.84;37.15;45144.28;5091114;28;20882;-73
2023/03/12 09:51:02;;;;;;;4.40;3.40;;;;;;;-143.84;36.60;45111.91;5090376;28;20229;-73
2023/03/12 09:53:39;;;;;;;13.93;3.57;;;;;;;-143.84;37.58;45094.78;5090901;28;20454;-74
2023/03/12 09:56:13;;;;;;;8.93;5.27;;;;;;;-143.84;35.90;45108.09;5090756;28;20466;-72
2023/03/12 09:58:43;;;;;;;8.13;7.37;;;;;;;-143.84;35.69;45117.63;5090750;28;20812;-72
2023/03/12 10:01:24;;;;;;;5.60;5.00;;;;;;;-143.84;35.84;45110.00;5090416;28;20970;-74
2023/03/12 10:04:04;;;;;;;4.77;4.23;;;;;;;-143.84;36.21;45113.81;5090110;28;20524;-73
2023/03/12 10:06:38;;;;;;;14.23;4.23;;;;;;;-143.84;35.54;45094.78;5090493;28;20564;-72
2023/03/12 10:09:22;;;;;;;13.67;10.00;;;;;;;-143.84;36.42;45106.19;5089772;28;20929;-73
2023/03/12 10:11:56;;;;;;;7.73;4.90;;;;;;;-143.84;36.22;45117.63;5090538;28;20486;-73
2023/03/12 10:14:39;;;;;;;13.27;9.77;;;;;;;-143.84;36.47;45115.72;5090736;28;20530;-72
2023/03/12 10:17:28;;;;;;;12.50;8.10;;;;;;;-143.84;35.84;45115.72;5090147;28;20452;-72
2023/03/12 10:20:21;;;;;;;31.37;27.53;;;;;;;-143.84;36.81;45089.06;5090864;28;20462;-73
2023/03/12 10:22:56;;;;;;;14.63;6.90;;;;;;;-143.84;36.40;45092.88;5090331;28;20940;-72
2023/03/12 10:25:32;;;;;;;6.33;5.80;;;;;;;-143.84;35.94;45098.56;5090524;28;20791;-72
2023/03/12 10:28:02;;;;;;;15.60;8.90;;;;;;;-143.84;35.83;45123.34;5090264;28;20970;-72
2023/03/12 10:30:32;;;;;;;29.27;23.73;;;;;;;-143.84;35.65;45110.00;5090036;28;20447;-71
2023/03/12 10:33:03;;;;;;;16.40;8.47;;;;;;;-143.84;35.42;45096.66;5090071;28;20855;-72
2023/03/12 10:35:30;;;;;;;7.27;4.10;;;;;;;-143.84;35.45;45121.44;5089961;28;21027;-72
2023/03/12 10:38:00;;;;;;;6.60;6.00;;;;;;;-143.84;36.04;45119.53;5089078;28;20884;-72
2023/03/12 10:40:32;;;;;;;5.97;3.70;;;;;;;-143.84;35.82;45115.72;5089461;28;20447;-72
2023/03/12 10:43:00;;;;;;;5.83;5.33;;;;;;;-143.84;36.07;45119.53;5089816;28;20464;-71
2023/03/12 10:45:35;;;;;;;10.23;5.57;;;;;;;-143.84;36.12;45104.28;5089987;28;20783;-72
2023/03/12 10:48:06;;;;;;;33.27;23.77;;;;;;;-143.84;36.61;45136.66;5090197;28;20473;-72
2023/03/12 10:50:35;;;;;;;15.03;10.70;;;;;;;-143.84;37.18;45151.91;5089722;28;20515;-72
2023/03/12 10:53:31;;;;;;;16.83;11.20;;;;;;;-143.84;37.55;45098.56;5089815;28;20473;-72
2023/03/12 10:56:03;;;;;;;9.20;7.73;;;;;;;-143.84;36.79;45106.19;5054172;28;21054;-72
2023/03/12 10:58:36;;;;;;;18.10;14.07;;;;;;;-143.84;37.16;45100.47;5089649;28;20505;-70
2023/03/12 11:01:05;;;;;;;6.60;5.20;;;;;;;-143.84;37.64;45100.47;5089279;28;20447;-70
2023/03/12 11:03:33;;;;;;;11.60;10.37;;;;;;;-143.84;38.55;45119.53;5089001;28;20452;-68
2023/03/12 11:06:01;;;;;;;13.90;5.63;;;;;;;-143.84;37.50;45106.19;5088983;28;20453;-68
2023/03/12 11:08:30;;;;;;;9.37;7.00;;;;;;;-143.84;36.90;45085.25;5089399;28;20497;-68
2023/03/12 11:10:59;;;;;;;17.80;15.00;;;;;;;-143.84;36.33;45130.94;5089547;28;20459;-68
2023/03/12 11:13:34;;;;;;;11.13;8.33;;;;;;;-143.84;35.99;45094.78;5088710;28;20449;-68
2023/03/12 11:16:03;;;;;;;4.47;2.80;;;;;;;-143.84;36.33;45094.78;5086436;28;20439;-68
2023/03/12 11:18:32;;;;;;;3.80;3.13;;;;;;;-143.84;35.67;45115.72;5088930;28;20443;-68
2023/03/12 11:21:18;;;;;;;5.53;3.80;;;;;;;-143.84;35.89;45111.91;5085783;28;20863;-68